sensor_id;sensor_type;location;lat;lon;timestamp;P1;durP1;ratioP1;P2;durP2;ratioP2
33162;SDS011;29282;45.656;11.302;2023-06-10T00:00:47;6.40;;;5.47;;
33162;SDS011;29282;45.656;11.302;2023-06-10T00:03:13;7.55;;;5.10;;
33162;SDS011;29282;45.656;11.302;2023-06-10T00:05:39;6.97;;;5.35;;
33162;SDS011;29282;45.656;11.302;2023-06-10T00:08:05;8.25;;;5.50;;
33162;SDS011;29282;45.656;11.302;2023-06-10T00:10:36;7.05;;;5.35;;
33162;SDS011;29282;45.656;11.302;2023-06-10T00:13:03;8.90;;;5.70;;
33162;SDS011;29282;45.656;11.302;2023-06-10T00:15:30;6.53;;;5.63;;
33162;SDS011;29282;45.656;11.302;2023-06-10T00:17:56;7.00;;;5.55;;
33162;SDS011;29282;45.656;11.302;2023-06-10T00:20:22;7.93;;;5.38;;
33162;SDS011;29282;45.656;11.302;2023-06-10T00:22:49;5.60;;;4.93;;
33162;SDS011;29282;45.656;11.302;2023-06-10T00:25:15;8.20;;;4.82;;
33162;SDS011;29282;45.656;11.302;2023-06-10T00:27:40;6.05;;;5.38;;
33162;SDS011;29282;45.656;11.302;2023-06-10T00:30:06;6.05;;;5.40;;
33162;SDS011;29282;45.656;11.302;2023-06-10T00:32:33;6.88;;;5.07;;
33162;SDS011;29282;45.656;11.302;2023-06-10T00:34:58;7.72;;;5.88;;
33162;SDS011;29282;45.656;11.302;2023-06-10T00:37:24;5.90;;;5.30;;
33162;SDS011;29282;45.656;11.302;2023-06-10T00:39:49;6.25;;;5.20;;
33162;SDS011;29282;45.656;11.302;2023-06-10T00:42:15;7.75;;;5.35;;
33162;SDS011;29282;45.656;11.302;2023-06-10T00:44:41;7.80;;;5.43;;
33162;SDS011;29282;45.656;11.302;2023-06-10T00:47:07;7.15;;;5.35;;
33162;SDS011;29282;45.656;11.302;2023-06-10T00:49:33;7.15;;;5.15;;
33162;SDS011;29282;45.656;11.302;2023-06-10T00:51:59;6.55;;;5.07;;
33162;SDS011;29282;45.656;11.302;2023-06-10T00:54:26;6.22;;;5.43;;
33162;SDS011;29282;45.656;11.302;2023-06-10T00:56:52;5.53;;;5.03;;
33162;SDS011;29282;45.656;11.302;2023-06-10T00:59:18;6.13;;;5.25;;
33162;SDS011;29282;45.656;11.302;2023-06-10T01:01:45;6.43;;;5.10;;
33162;SDS011;29282;45.656;11.302;2023-06-10T01:04:12;5.75;;;5.15;;
33162;SDS011;29282;45.656;11.302;2023-06-10T01:12:09;5.70;;;5.05;;
33162;SDS011;29282;45.656;11.302;2023-06-10T01:14:42;6.30;;;4.65;;
33162;SDS011;29282;45.656;11.302;2023-06-10T01:17:08;5.57;;;5.07;;
33162;SDS011;29282;45.656;11.302;2023-06-10T01:19:34;5.63;;;4.90;;
33162;SDS011;29282;45.656;11.302;2023-06-10T01:22:01;5.80;;;5.20;;
33162;SDS011;29282;45.656;11.302;2023-06-10T01:24:27;6.38;;;4.72;;
33162;SDS011;29282;45.656;11.302;2023-06-10T01:26:54;5.15;;;4.68;;
33162;SDS011;29282;45.656;11.302;2023-06-10T01:29:32;6.10;;;4.63;;
33162;SDS011;29282;45.656;11.302;2023-06-10T01:32:09;5.10;;;4.60;;
33162;SDS011;29282;45.656;11.302;2023-06-10T01:34:42;6.25;;;4.90;;
33162;SDS011;29282;45.656;11.302;2023-06-10T01:37:09;5.50;;;4.93;;
33162;SDS011;29282;45.656;11.302;2023-06-10T01:39:39;5.63;;;5.05;;
33162;SDS011;29282;45.656;11.302;2023-06-10T01:42:05;5.45;;;4.93;;
33162;SDS011;29282;45.656;11.302;2023-06-10T01:44:31;5.25;;;4.75;;
33162;SDS011;29282;45.656;11.302;2023-06-10T01:46:57;5.68;;;4.80;;
33162;SDS011;29282;45.656;11.302;2023-06-10T01:49:23;5.72;;;4.85;;
33162;SDS011;29282;45.656;11.302;2023-06-10T01:51:49;5.80;;;4.63;;
33162;SDS011;29282;45.656;11.302;2023-06-10T01:54:15;5.50;;;4.70;;
33162;SDS011;29282;45.656;11.302;2023-06-10T01:56:41;5.55;;;4.40;;
33162;SDS011;29282;45.656;11.302;2023-06-10T01:59:12;5.85;;;5.20;;
33162;SDS011;29282;45.656;11.302;2023-06-10T02:01:38;5.70;;;5.15;;
33162;SDS011;29282;45.656;11.302;2023-06-10T02:04:04;7.57;;;4.60;;
33162;SDS011;29282;45.656;11.302;2023-06-10T02:06:29;5.88;;;5.03;;
33162;SDS011;29282;45.656;11.302;2023-06-10T02:08:56;4.78;;;4.38;;
33162;SDS011;29282;45.656;11.302;2023-06-10T02:11:21;8.90;;;5.28;;
33162;SDS011;29282;45.656;11.302;2023-06-10T02:13:47;5.40;;;4.90;;
33162;SDS011;29282;45.656;11.302;2023-06-10T02:16:12;7.97;;;5.13;;
33162;SDS011;29282;45.656;11.302;2023-06-10T02:18:39;5.55;;;5.00;;
33162;SDS011;29282;45.656;11.302;2023-06-10T02:21:08;5.45;;;4.95;;
33162;SDS011;29282;45.656;11.302;2023-06-10T02:23:33;5.38;;;4.53;;
33162;SDS011;29282;45.656;11.302;2023-06-10T02:25:59;4.55;;;4.10;;
33162;SDS011;29282;45.656;11.302;2023-06-10T02:28:24;5.13;;;4.47;;
33162;SDS011;29282;45.656;11.302;2023-06-10T02:30:51;5.68;;;4.70;;
33162;SDS011;29282;45.656;11.302;2023-06-10T02:33:17;5.30;;;4.80;;
33162;SDS011;29282;45.656;11.302;2023-06-10T02:35:42;4.90;;;4.15;;
33162;SDS011;29282;45.656;11.302;2023-06-10T02:38:08;4.65;;;4.25;;
33162;SDS011;29282;45.656;11.302;2023-06-10T02:40:34;4.93;;;4.43;;
33162;SDS011;29282;45.656;11.302;2023-06-10T02:42:59;4.70;;;4.30;;
33162;SDS011;29282;45.656;11.302;2023-06-10T02:45:25;4.63;;;4.10;;
33162;SDS011;29282;45.656;11.302;2023-06-10T02:47:51;5.07;;;4.53;;
33162;SDS011;29282;45.656;11.302;2023-06-10T02:50:16;4.85;;;4.03;;
33162;SDS011;29282;45.656;11.302;2023-06-10T02:52:42;4.55;;;4.15;;
33162;SDS011;29282;45.656;11.302;2023-06-10T02:55:08;4.72;;;4.20;;
33162;SDS011;29282;45.656;11.302;2023-06-10T02:57:37;4.28;;;3.88;;
33162;SDS011;29282;45.656;11.302;2023-06-10T03:00:02;5.63;;;4.72;;
33162;SDS011;29282;45.656;11.302;2023-06-10T03:02:34;4.93;;;4.43;;
33162;SDS011;29282;45.656;11.302;2023-06-10T03:05:02;4.60;;;4.20;;
33162;SDS011;29282;45.656;11.302;2023-06-10T03:07:28;5.10;;;4.47;;
33162;SDS011;29282;45.656;11.302;2023-06-10T03:09:56;4.93;;;3.97;;
33162;SDS011;29282;45.656;11.302;2023-06-10T03:12:22;4.60;;;4.20;;
33162;SDS011;29282;45.656;11.302;2023-06-10T03:14:47;4.97;;;4.53;;
33162;SDS011;29282;45.656;11.302;2023-06-10T03:17:13;4.60;;;4.20;;
33162;SDS011;29282;45.656;11.302;2023-06-10T03:19:38;5.63;;;4.65;;
33162;SDS011;29282;45.656;11.302;2023-06-10T03:22:08;5.07;;;4.57;;
33162;SDS011;29282;45.656;11.302;2023-06-10T03:24:37;5.28;;;3.97;;
33162;SDS011;29282;45.656;11.302;2023-06-10T03:27:08;4.50;;;4.20;;
33162;SDS011;29282;45.656;11.302;2023-06-10T03:29:34;4.90;;;4.50;;
33162;SDS011;29282;45.656;11.302;2023-06-10T03:32:01;4.88;;;4.20;;
33162;SDS011;29282;45.656;11.302;2023-06-10T03:34:27;6.25;;;4.75;;
33162;SDS011;29282;45.656;11.302;2023-06-10T03:36:52;4.70;;;4.30;;
33162;SDS011;29282;45.656;11.302;2023-06-10T03:39:18;4.80;;;4.40;;
33162;SDS011;29282;45.656;11.302;2023-06-10T03:41:44;4.65;;;4.10;;
33162;SDS011;29282;45.656;11.302;2023-06-10T03:44:10;4.47;;;4.07;;
33162;SDS011;29282;45.656;11.302;2023-06-10T03:46:35;4.50;;;4.10;;
33162;SDS011;29282;45.656;11.302;2023-06-10T03:49:01;5.15;;;4.35;;
33162;SDS011;29282;45.656;11.302;2023-06-10T03:51:28;4.32;;;3.92;;
33162;SDS011;29282;45.656;11.302;2023-06-10T03:53:54;4.10;;;3.70;;
33162;SDS011;29282;45.656;11.302;2023-06-10T03:56:19;5.35;;;4.63;;
33162;SDS011;29282;45.656;11.302;2023-06-10T03:58:45;4.88;;;4.32;;
33162;SDS011;29282;45.656;11.302;2023-06-10T04:01:10;4.70;;;4.15;;
33162;SDS011;29282;45.656;11.302;2023-06-10T04:03:38;4.85;;;3.90;;
33162;SDS011;29282;45.656;11.302;2023-06-10T04:06:04;4.72;;;4.18;;
33162;SDS011;29282;45.656;11.302;2023-06-10T04:08:30;4.93;;;4.43;;
33162;SDS011;29282;45.656;11.302;2023-06-10T04:10:58;5.72;;;4.20;;
33162;SDS011;29282;45.656;11.302;2023-06-10T04:13:23;4.50;;;4.10;;
33162;SDS011;29282;45.656;11.302;2023-06-10T04:15:49;4.28;;;3.88;;
33162;SDS011;29282;45.656;11.302;2023-06-10T04:18:17;4.57;;;4.18;;
33162;SDS011;29282;45.656;11.302;2023-06-10T04:20:43;4.47;;;4.05;;
33162;SDS011;29282;45.656;11.302;2023-06-10T04:23:10;5.38;;;4.18;;
33162;SDS011;29282;45.656;11.302;2023-06-10T04:25:35;4.53;;;4.00;;
33162;SDS011;29282;45.656;11.302;2023-06-10T04:28:01;6.07;;;4.70;;
33162;SDS011;29282;45.656;11.302;2023-06-10T04:30:26;4.60;;;4.20;;
33162;SDS011;29282;45.656;11.302;2023-06-10T04:32:52;4.72;;;4.18;;
33162;SDS011;29282;45.656;11.302;2023-06-10T04:35:17;4.05;;;3.75;;
33162;SDS011;29282;45.656;11.302;2023-06-10T04:37:46;4.57;;;4.15;;
33162;SDS011;29282;45.656;11.302;2023-06-10T04:40:12;4.63;;;4.22;;
33162;SDS011;29282;45.656;11.302;2023-06-10T04:42:37;5.82;;;4.05;;
33162;SDS011;29282;45.656;11.302;2023-06-10T04:45:03;4.30;;;3.90;;
33162;SDS011;29282;45.656;11.302;2023-06-10T04:47:29;4.55;;;4.15;;
33162;SDS011;29282;45.656;11.302;2023-06-10T04:49:58;4.30;;;3.90;;
33162;SDS011;29282;45.656;11.302;2023-06-10T04:52:28;4.30;;;4.00;;
33162;SDS011;29282;45.656;11.302;2023-06-10T04:54:59;4.43;;;4.05;;
33162;SDS011;29282;45.656;11.302;2023-06-10T04:57:25;4.30;;;3.90;;
33162;SDS011;29282;45.656;11.302;2023-06-10T04:59:51;4.65;;;4.25;;
33162;SDS011;29282;45.656;11.302;2023-06-10T05:02:17;4.28;;;3.97;;
33162;SDS011;29282;45.656;11.302;2023-06-10T05:04:42;5.07;;;4.40;;
33162;SDS011;29282;45.656;11.302;2023-06-10T05:07:08;5.40;;;3.65;;
33162;SDS011;29282;45.656;11.302;2023-06-10T05:09:34;6.43;;;4.45;;
33162;SDS011;29282;45.656;11.302;2023-06-10T05:11:59;4.50;;;3.97;;
33162;SDS011;29282;45.656;11.302;2023-06-10T05:14:25;6.25;;;4.00;;
33162;SDS011;29282;45.656;11.302;2023-06-10T05:16:50;4.10;;;3.72;;
33162;SDS011;29282;45.656;11.302;2023-06-10T05:19:19;6.07;;;4.20;;
33162;SDS011;29282;45.656;11.302;2023-06-10T05:21:45;6.15;;;3.95;;
33162;SDS011;29282;45.656;11.302;2023-06-10T05:24:10;3.97;;;3.65;;
33162;SDS011;29282;45.656;11.302;2023-06-10T05:26:36;8.38;;;4.15;;
33162;SDS011;29282;45.656;11.302;2023-06-10T05:29:03;10.57;;;4.55;;
33162;SDS011;29282;45.656;11.302;2023-06-10T05:31:29;7.80;;;4.60;;
33162;SDS011;29282;45.656;11.302;2023-06-10T05:33:55;5.22;;;4.63;;
33162;SDS011;29282;45.656;11.302;2023-06-10T05:36:20;7.82;;;4.43;;
33162;SDS011;29282;45.656;11.302;2023-06-10T05:38:46;7.75;;;4.32;;
33162;SDS011;29282;45.656;11.302;2023-06-10T05:41:12;8.45;;;5.20;;
33162;SDS011;29282;45.656;11.302;2023-06-10T05:43:40;8.90;;;4.22;;
33162;SDS011;29282;45.656;11.302;2023-06-10T05:46:06;6.50;;;4.25;;
33162;SDS011;29282;45.656;11.302;2023-06-10T05:48:31;5.00;;;3.80;;
33162;SDS011;29282;45.656;11.302;2023-06-10T05:50:57;4.85;;;4.35;;
33162;SDS011;29282;45.656;11.302;2023-06-10T05:53:22;5.53;;;4.38;;
33162;SDS011;29282;45.656;11.302;2023-06-10T05:55:48;5.40;;;3.90;;
33162;SDS011;29282;45.656;11.302;2023-06-10T05:58:14;4.85;;;4.30;;
33162;SDS011;29282;45.656;11.302;2023-06-10T06:00:39;5.18;;;4.00;;
33162;SDS011;29282;45.656;11.302;2023-06-10T06:03:08;7.70;;;4.40;;
33162;SDS011;29282;45.656;11.302;2023-06-10T06:05:34;6.30;;;4.00;;
33162;SDS011;29282;45.656;11.302;2023-06-10T06:08:02;5.53;;;4.05;;
33162;SDS011;29282;45.656;11.302;2023-06-10T06:10:31;5.90;;;4.38;;
33162;SDS011;29282;45.656;11.302;2023-06-10T06:12:57;4.88;;;4.10;;
33162;SDS011;29282;45.656;11.302;2023-06-10T06:15:23;9.93;;;4.30;;
33162;SDS011;29282;45.656;11.302;2023-06-10T06:17:49;4.45;;;4.05;;
33162;SDS011;29282;45.656;11.302;2023-06-10T06:20:17;6.30;;;4.15;;
33162;SDS011;29282;45.656;11.302;2023-06-10T06:22:46;5.82;;;3.85;;
33162;SDS011;29282;45.656;11.302;2023-06-10T06:25:12;7.10;;;4.10;;
33162;SDS011;29282;45.656;11.302;2023-06-10T06:27:37;4.93;;;3.88;;
33162;SDS011;29282;45.656;11.302;2023-06-10T06:30:04;6.63;;;3.90;;
33162;SDS011;29282;45.656;11.302;2023-06-10T06:32:30;6.15;;;3.55;;
33162;SDS011;29282;45.656;11.302;2023-06-10T06:34:56;4.72;;;3.88;;
33162;SDS011;29282;45.656;11.302;2023-06-10T06:37:22;5.63;;;3.65;;
33162;SDS011;29282;45.656;11.302;2023-06-10T06:39:51;5.10;;;4.00;;
33162;SDS011;29282;45.656;11.302;2023-06-10T06:42:18;4.60;;;4.20;;
33162;SDS011;29282;45.656;11.302;2023-06-10T06:44:44;4.43;;;4.03;;
33162;SDS011;29282;45.656;11.302;2023-06-10T06:47:10;4.82;;;3.72;;
33162;SDS011;29282;45.656;11.302;2023-06-10T06:49:35;4.82;;;4.07;;
33162;SDS011;29282;45.656;11.302;2023-06-10T06:52:01;4.10;;;3.40;;
33162;SDS011;29282;45.656;11.302;2023-06-10T06:54:27;4.85;;;3.80;;
33162;SDS011;29282;45.656;11.302;2023-06-10T06:56:53;3.97;;;3.58;;
33162;SDS011;29282;45.656;11.302;2023-06-10T06:59:18;4.20;;;3.78;;
33162;SDS011;29282;45.656;11.302;2023-06-10T07:01:46;4.10;;;3.70;;
33162;SDS011;29282;45.656;11.302;2023-06-10T07:04:14;5.20;;;3.90;;
33162;SDS011;29282;45.656;11.302;2023-06-10T07:06:40;4.30;;;3.88;;
33162;SDS011;29282;45.656;11.302;2023-06-10T07:09:07;5.88;;;4.05;;
33162;SDS011;29282;45.656;11.302;2023-06-10T07:11:33;5.78;;;3.90;;
33162;SDS011;29282;45.656;11.302;2023-06-10T07:14:02;4.20;;;3.80;;
33162;SDS011;29282;45.656;11.302;2023-06-10T07:16:28;4.65;;;4.18;;
33162;SDS011;29282;45.656;11.302;2023-06-10T07:18:53;5.82;;;3.55;;
33162;SDS011;29282;45.656;11.302;2023-06-10T07:21:19;4.30;;;3.90;;
33162;SDS011;29282;45.656;11.302;2023-06-10T07:23:45;7.80;;;4.38;;
33162;SDS011;29282;45.656;11.302;2023-06-10T07:26:11;5.65;;;3.80;;
33162;SDS011;29282;45.656;11.302;2023-06-10T07:28:39;5.28;;;3.97;;
33162;SDS011;29282;45.656;11.302;2023-06-10T07:31:05;3.50;;;3.20;;
33162;SDS011;29282;45.656;11.302;2023-06-10T07:33:31;4.68;;;3.33;;
33162;SDS011;29282;45.656;11.302;2023-06-10T07:35:57;4.55;;;3.92;;
33162;SDS011;29282;45.656;11.302;2023-06-10T07:38:24;4.18;;;3.78;;
33162;SDS011;29282;45.656;11.302;2023-06-10T07:40:50;4.25;;;3.85;;
33162;SDS011;29282;45.656;11.302;2023-06-10T07:43:16;3.75;;;3.45;;
33162;SDS011;29282;45.656;11.302;2023-06-10T07:45:42;4.00;;;3.60;;
33162;SDS011;29282;45.656;11.302;2023-06-10T07:48:08;4.32;;;3.70;;
33162;SDS011;29282;45.656;11.302;2023-06-10T07:50:34;5.93;;;3.70;;
33162;SDS011;29282;45.656;11.302;2023-06-10T07:52:59;7.72;;;4.10;;
33162;SDS011;29282;45.656;11.302;2023-06-10T07:55:25;3.85;;;3.55;;
33162;SDS011;29282;45.656;11.302;2023-06-10T07:57:51;5.25;;;3.50;;
33162;SDS011;29282;45.656;11.302;2023-06-10T08:00:18;3.97;;;3.63;;
33162;SDS011;29282;45.656;11.302;2023-06-10T08:02:43;5.57;;;4.03;;
33162;SDS011;29282;45.656;11.302;2023-06-10T08:05:09;3.85;;;3.40;;
33162;SDS011;29282;45.656;11.302;2023-06-10T08:07:35;5.00;;;3.63;;
33162;SDS011;29282;45.656;11.302;2023-06-10T08:10:04;3.40;;;3.10;;
33162;SDS011;29282;45.656;11.302;2023-06-10T08:12:31;4.82;;;3.90;;
33162;SDS011;29282;45.656;11.302;2023-06-10T08:15:00;3.80;;;3.50;;
33162;SDS011;29282;45.656;11.302;2023-06-10T08:17:28;5.15;;;3.97;;
33162;SDS011;29282;45.656;11.302;2023-06-10T08:19:55;5.65;;;3.53;;
33162;SDS011;29282;45.656;11.302;2023-06-10T08:22:21;3.75;;;3.35;;
33162;SDS011;29282;45.656;11.302;2023-06-10T08:24:46;4.15;;;3.75;;
33162;SDS011;29282;45.656;11.302;2023-06-10T08:27:12;5.43;;;3.60;;
33162;SDS011;29282;45.656;11.302;2023-06-10T08:29:38;3.70;;;3.40;;
33162;SDS011;29282;45.656;11.302;2023-06-10T08:32:04;3.63;;;3.33;;
33162;SDS011;29282;45.656;11.302;2023-06-10T08:34:33;4.05;;;3.63;;
33162;SDS011;29282;45.656;11.302;2023-06-10T08:36:59;4.00;;;3.60;;
33162;SDS011;29282;45.656;11.302;2023-06-10T08:39:24;4.28;;;3.83;;
33162;SDS011;29282;45.656;11.302;2023-06-10T08:41:58;5.15;;;3.63;;
33162;SDS011;29282;45.656;11.302;2023-06-10T08:44:32;3.65;;;3.22;;
33162;SDS011;29282;45.656;11.302;2023-06-10T08:47:03;3.80;;;3.50;;
33162;SDS011;29282;45.656;11.302;2023-06-10T08:49:33;4.65;;;3.40;;
33162;SDS011;29282;45.656;11.302;2023-06-10T08:52:03;4.22;;;3.53;;
33162;SDS011;29282;45.656;11.302;2023-06-10T08:54:32;4.07;;;3.78;;
33162;SDS011;29282;45.656;11.302;2023-06-10T08:57:05;3.72;;;3.42;;
33162;SDS011;29282;45.656;11.302;2023-06-10T08:59:31;4.07;;;3.67;;
33162;SDS011;29282;45.656;11.302;2023-06-10T09:01:57;3.97;;;3.67;;
33162;SDS011;29282;45.656;11.302;2023-06-10T09:04:24;4.85;;;3.38;;
33162;SDS011;29282;45.656;11.302;2023-06-10T09:06:49;4.35;;;3.40;;
33162;SDS011;29282;45.656;11.302;2023-06-10T09:09:16;3.67;;;3.38;;
33162;SDS011;29282;45.656;11.302;2023-06-10T09:11:46;4.35;;;3.70;;
33162;SDS011;29282;45.656;11.302;2023-06-10T09:14:11;3.67;;;3.33;;
33162;SDS011;29282;45.656;11.302;2023-06-10T09:16:38;4.05;;;3.65;;
33162;SDS011;29282;45.656;11.302;2023-06-10T09:19:04;3.88;;;3.47;;
33162;SDS011;29282;45.656;11.302;2023-06-10T09:21:33;3.88;;;3.58;;
33162;SDS011;29282;45.656;11.302;2023-06-10T09:24:00;3.55;;;3.25;;
33162;SDS011;29282;45.656;11.302;2023-06-10T09:26:29;3.75;;;3.45;;
33162;SDS011;29282;45.656;11.302;2023-06-10T09:29:02;3.50;;;3.20;;
33162;SDS011;29282;45.656;11.302;2023-06-10T09:33:55;3.85;;;3.55;;
33162;SDS011;29282;45.656;11.302;2023-06-10T09:36:33;3.45;;;3.15;;
33162;SDS011;29282;45.656;11.302;2023-06-10T09:39:00;4.95;;;3.63;;
33162;SDS011;29282;45.656;11.302;2023-06-10T09:41:39;4.18;;;3.55;;
33162;SDS011;29282;45.656;11.302;2023-06-10T09:44:11;4.22;;;3.83;;
33162;SDS011;29282;45.656;11.302;2023-06-10T09:46:38;4.30;;;3.45;;
33162;SDS011;29282;45.656;11.302;2023-06-10T09:49:03;3.95;;;3.55;;
33162;SDS011;29282;45.656;11.302;2023-06-10T09:51:29;4.28;;;3.75;;
33162;SDS011;29282;45.656;11.302;2023-06-10T09:53:54;4.15;;;3.35;;
33162;SDS011;29282;45.656;11.302;2023-06-10T09:56:20;4.03;;;3.63;;
33162;SDS011;29282;45.656;11.302;2023-06-10T09:58:49;4.20;;;3.83;;
33162;SDS011;29282;45.656;11.302;2023-06-10T10:01:18;4.28;;;3.70;;
33162;SDS011;29282;45.656;11.302;2023-06-10T10:03:48;3.50;;;3.20;;
33162;SDS011;29282;45.656;11.302;2023-06-10T10:06:15;3.83;;;3.53;;
33162;SDS011;29282;45.656;11.302;2023-06-10T10:08:42;3.67;;;3.38;;
33162;SDS011;29282;45.656;11.302;2023-06-10T10:11:08;5.28;;;3.50;;
33162;SDS011;29282;45.656;11.302;2023-06-10T10:13:34;3.58;;;3.28;;
33162;SDS011;29282;45.656;11.302;2023-06-10T10:16:07;4.00;;;3.60;;
33162;SDS011;29282;45.656;11.302;2023-06-10T10:18:38;3.88;;;3.47;;
33162;SDS011;29282;45.656;11.302;2023-06-10T10:21:09;4.05;;;3.75;;
33162;SDS011;29282;45.656;11.302;2023-06-10T10:23:44;4.38;;;3.40;;
33162;SDS011;29282;45.656;11.302;2023-06-10T10:26:21;3.78;;;3.47;;
33162;SDS011;29282;45.656;11.302;2023-06-10T10:29:14;3.65;;;3.35;;
33162;SDS011;29282;45.656;11.302;2023-06-10T10:31:42;3.90;;;3.30;;
33162;SDS011;29282;45.656;11.302;2023-06-10T10:34:19;3.88;;;3.58;;
33162;SDS011;29282;45.656;11.302;2023-06-10T10:37:03;3.80;;;3.40;;
33162;SDS011;29282;45.656;11.302;2023-06-10T10:39:29;3.97;;;3.55;;
33162;SDS011;29282;45.656;11.302;2023-06-10T10:41:56;3.70;;;3.40;;
33162;SDS011;29282;45.656;11.302;2023-06-10T10:44:22;4.28;;;3.90;;
33162;SDS011;29282;45.656;11.302;2023-06-10T10:46:49;3.58;;;3.28;;
33162;SDS011;29282;45.656;11.302;2023-06-10T10:49:16;3.80;;;3.50;;
33162;SDS011;29282;45.656;11.302;2023-06-10T10:52:04;3.53;;;3.22;;
33162;SDS011;29282;45.656;11.302;2023-06-10T10:54:35;3.45;;;3.15;;
33162;SDS011;29282;45.656;11.302;2023-06-10T11:02:42;3.83;;;3.53;;
33162;SDS011;29282;45.656;11.302;2023-06-10T11:05:12;3.72;;;3.42;;
33162;SDS011;29282;45.656;11.302;2023-06-10T11:07:40;3.10;;;2.90;;
33162;SDS011;29282;45.656;11.302;2023-06-10T11:15:13;3.90;;;3.60;;
33162;SDS011;29282;45.656;11.302;2023-06-10T11:28:38;3.97;;;3.67;;
33162;SDS011;29282;45.656;11.302;2023-06-10T11:31:04;3.65;;;3.35;;
33162;SDS011;29282;45.656;11.302;2023-06-10T11:33:30;3.60;;;3.30;;
33162;SDS011;29282;45.656;11.302;2023-06-10T11:35:56;3.28;;;3.00;;
33162;SDS011;29282;45.656;11.302;2023-06-10T11:38:23;3.42;;;3.22;;
33162;SDS011;29282;45.656;11.302;2023-06-10T11:40:49;3.60;;;3.30;;
33162;SDS011;29282;45.656;11.302;2023-06-10T11:43:16;4.03;;;3.45;;
33162;SDS011;29282;45.656;11.302;2023-06-10T11:45:42;3.72;;;3.42;;
33162;SDS011;29282;45.656;11.302;2023-06-10T11:48:08;3.53;;;3.22;;
33162;SDS011;29282;45.656;11.302;2023-06-10T11:50:34;3.90;;;3.50;;
33162;SDS011;29282;45.656;11.302;2023-06-10T11:53:00;3.80;;;3.50;;
33162;SDS011;29282;45.656;11.302;2023-06-10T11:55:41;3.80;;;3.50;;
33162;SDS011;29282;45.656;11.302;2023-06-10T11:58:18;3.88;;;3.50;;
33162;SDS011;29282;45.656;11.302;2023-06-10T12:00:48;3.90;;;3.60;;
33162;SDS011;29282;45.656;11.302;2023-06-10T12:03:26;3.95;;;3.08;;
33162;SDS011;29282;45.656;11.302;2023-06-10T12:06:04;3.67;;;3.38;;
33162;SDS011;29282;45.656;11.302;2023-06-10T12:08:31;3.75;;;3.40;;
33162;SDS011;29282;45.656;11.302;2023-06-10T12:10:57;3.70;;;3.40;;
33162;SDS011;29282;45.656;11.302;2023-06-10T12:13:27;3.80;;;3.50;;
33162;SDS011;29282;45.656;11.302;2023-06-10T12:15:53;3.80;;;3.42;;
33162;SDS011;29282;45.656;11.302;2023-06-10T12:18:22;3.80;;;3.40;;
33162;SDS011;29282;45.656;11.302;2023-06-10T12:20:48;3.67;;;3.38;;
33162;SDS011;29282;45.656;11.302;2023-06-10T12:23:15;3.60;;;3.30;;
33162;SDS011;29282;45.656;11.302;2023-06-10T12:25:52;3.80;;;3.50;;
33162;SDS011;29282;45.656;11.302;2023-06-10T12:28:25;3.20;;;3.00;;
33162;SDS011;29282;45.656;11.302;2023-06-10T12:30:52;3.53;;;3.22;;
33162;SDS011;29282;45.656;11.302;2023-06-10T12:33:31;3.38;;;3.08;;
33162;SDS011;29282;45.656;11.302;2023-06-10T12:35:57;3.45;;;3.15;;
33162;SDS011;29282;45.656;11.302;2023-06-10T12:38:23;3.75;;;3.45;;
33162;SDS011;29282;45.656;11.302;2023-06-10T12:40:52;3.58;;;3.28;;
33162;SDS011;29282;45.656;11.302;2023-06-10T12:43:21;3.05;;;2.85;;
33162;SDS011;29282;45.656;11.302;2023-06-10T12:45:48;3.30;;;3.00;;
33162;SDS011;29282;45.656;11.302;2023-06-10T12:48:18;3.60;;;3.30;;
33162;SDS011;29282;45.656;11.302;2023-06-10T12:50:50;3.33;;;3.08;;
33162;SDS011;29282;45.656;11.302;2023-06-10T12:55:46;3.70;;;3.35;;
33162;SDS011;29282;45.656;11.302;2023-06-10T12:58:15;5.10;;;3.38;;
33162;SDS011;29282;45.656;11.302;2023-06-10T13:00:41;3.83;;;3.53;;
33162;SDS011;29282;45.656;11.302;2023-06-10T13:03:07;3.40;;;3.10;;
33162;SDS011;29282;45.656;11.302;2023-06-10T13:05:34;3.28;;;2.97;;
33162;SDS011;29282;45.656;11.302;2023-06-10T13:08:04;3.50;;;3.20;;
33162;SDS011;29282;45.656;11.302;2023-06-10T13:10:32;3.40;;;3.10;;
33162;SDS011;29282;45.656;11.302;2023-06-10T13:12:57;3.60;;;3.30;;
33162;SDS011;29282;45.656;11.302;2023-06-10T13:15:24;3.65;;;3.35;;
33162;SDS011;29282;45.656;11.302;2023-06-10T13:17:51;3.80;;;3.50;;
33162;SDS011;29282;45.656;11.302;2023-06-10T13:20:17;3.45;;;3.15;;
33162;SDS011;29282;45.656;11.302;2023-06-10T13:22:44;3.70;;;3.35;;
33162;SDS011;29282;45.656;11.302;2023-06-10T13:25:10;3.65;;;3.35;;
33162;SDS011;29282;45.656;11.302;2023-06-10T13:27:36;3.90;;;3.60;;
33162;SDS011;29282;45.656;11.302;2023-06-10T13:30:08;3.33;;;3.08;;
33162;SDS011;29282;45.656;11.302;2023-06-10T13:32:35;3.20;;;3.00;;
33162;SDS011;29282;45.656;11.302;2023-06-10T13:35:01;3.60;;;3.30;;
33162;SDS011;29282;45.656;11.302;2023-06-10T13:37:27;3.15;;;2.95;;
33162;SDS011;29282;45.656;11.302;2023-06-10T13:39:52;3.80;;;3.10;;
33162;SDS011;29282;45.656;11.302;2023-06-10T13:42:18;3.40;;;3.00;;
33162;SDS011;29282;45.656;11.302;2023-06-10T13:44:44;3.50;;;3.20;;
33162;SDS011;29282;45.656;11.302;2023-06-10T13:47:09;3.80;;;3.50;;
33162;SDS011;29282;45.656;11.302;2023-06-10T13:49:35;3.47;;;3.17;;
33162;SDS011;29282;45.656;11.302;2023-06-10T13:52:01;3.28;;;2.97;;
33162;SDS011;29282;45.656;11.302;2023-06-10T13:54:27;3.25;;;3.05;;
33162;SDS011;29282;45.656;11.302;2023-06-10T13:56:53;3.92;;;3.58;;
33162;SDS011;29282;45.656;11.302;2023-06-10T13:59:19;3.58;;;3.28;;
33162;SDS011;29282;45.656;11.302;2023-06-10T14:01:45;3.78;;;3.38;;
33162;SDS011;29282;45.656;11.302;2023-06-10T14:04:11;3.35;;;3.08;;
33162;SDS011;29282;45.656;11.302;2023-06-10T14:06:36;3.30;;;3.03;;
33162;SDS011;29282;45.656;11.302;2023-06-10T14:09:05;3.67;;;3.38;;
33162;SDS011;29282;45.656;11.302;2023-06-10T14:11:30;3.80;;;3.50;;
33162;SDS011;29282;45.656;11.302;2023-06-10T14:13:56;3.63;;;3.33;;
33162;SDS011;29282;45.656;11.302;2023-06-10T14:16:23;4.40;;;3.30;;
33162;SDS011;29282;45.656;11.302;2023-06-10T14:18:49;3.70;;;3.40;;
33162;SDS011;29282;45.656;11.302;2023-06-10T14:21:18;3.60;;;3.30;;
33162;SDS011;29282;45.656;11.302;2023-06-10T14:23:43;3.42;;;3.20;;
33162;SDS011;29282;45.656;11.302;2023-06-10T14:26:09;3.65;;;3.35;;
33162;SDS011;29282;45.656;11.302;2023-06-10T14:28:35;3.72;;;3.42;;
33162;SDS011;29282;45.656;11.302;2023-06-10T14:31:01;4.35;;;3.33;;
33162;SDS011;29282;45.656;11.302;2023-06-10T14:33:27;4.30;;;3.45;;
33162;SDS011;29282;45.656;11.302;2023-06-10T14:35:53;3.50;;;3.20;;
33162;SDS011;29282;45.656;11.302;2023-06-10T14:38:18;3.55;;;3.03;;
33162;SDS011;29282;45.656;11.302;2023-06-10T14:40:44;3.47;;;3.17;;
33162;SDS011;29282;45.656;11.302;2023-06-10T14:43:10;5.05;;;3.33;;
33162;SDS011;29282;45.656;11.302;2023-06-10T14:45:39;3.45;;;2.95;;
33162;SDS011;29282;45.656;11.302;2023-06-10T14:48:05;3.53;;;3.10;;
33162;SDS011;29282;45.656;11.302;2023-06-10T14:50:32;3.80;;;3.42;;
33162;SDS011;29282;45.656;11.302;2023-06-10T14:53:00;3.40;;;3.10;;
33162;SDS011;29282;45.656;11.302;2023-06-10T14:55:26;3.08;;;2.88;;
33162;SDS011;29282;45.656;11.302;2023-06-10T14:57:52;3.60;;;3.30;;
33162;SDS011;29282;45.656;11.302;2023-06-10T15:00:18;3.40;;;3.10;;
33162;SDS011;29282;45.656;11.302;2023-06-10T15:02:48;3.72;;;3.40;;
33162;SDS011;29282;45.656;11.302;2023-06-10T15:05:14;3.38;;;3.17;;